createdAt,value
2022-09-17T00:02:22.656Z,99093.72
2022-09-17T00:07:25.293Z,99090.31
2022-09-17T00:12:27.990Z,99107.72
2022-09-17T00:17:31.963Z,99101.75
2022-09-17T00:22:34.613Z,99097.16
2022-09-17T00:27:37.283Z,99111.50
2022-09-17T00:32:41.342Z,99114.97
2022-09-17T00:37:43.969Z,99117.31
2022-09-17T00:42:46.615Z,99111.22
2022-09-17T00:47:56.927Z,99114.22
2022-09-17T00:53:03.154Z,99119.25
2022-09-17T00:58:09.216Z,99118.03
2022-09-17T01:03:13.263Z,99121.50
2022-09-17T01:08:26.982Z,99129.56
2022-09-17T01:13:38.523Z,99130.31
2022-09-17T01:18:59.173Z,99128.25
2022-09-17T01:24:34.246Z,99127.84
2022-09-17T01:29:56.559Z,99121.19
2022-09-17T01:35:06.374Z,99127.09
2022-09-17T01:40:13.979Z,99122.16
2022-09-17T01:45:24.716Z,99135.97
2022-09-17T01:50:34.623Z,99129.88
2022-09-17T01:55:41.494Z,99128.44
2022-09-17T02:00:51.431Z,99131.47
2022-09-17T02:06:01.108Z,99136.31
2022-09-17T02:11:09.110Z,99134.06
2022-09-17T02:16:18.837Z,99136.22
2022-09-17T02:21:31.322Z,99141.25
2022-09-17T02:26:38.468Z,99140.84
2022-09-17T02:31:42.392Z,99141.13
2022-09-17T02:36:46.810Z,99152.25
2022-09-17T02:42:04.881Z,99150.84
2022-09-17T02:47:57.914Z,99151.13
2022-09-17T02:53:12.647Z,99150.59
2022-09-17T02:58:25.521Z,99133.81
2022-09-17T03:03:35.489Z,99135.97
2022-09-17T03:08:42.965Z,99143.53
2022-09-17T03:13:45.750Z,99138.41
2022-09-17T03:18:48.424Z,99148.53
2022-09-17T03:23:52.909Z,99151.53
2022-09-17T03:28:55.810Z,99147.28
2022-09-17T03:33:58.783Z,99152.97
2022-09-17T03:39:02.806Z,99146.88
2022-09-17T03:44:05.495Z,99146.28
2022-09-17T03:49:09.009Z,99146.59
2022-09-17T03:54:13.069Z,99157.53
2022-09-17T03:59:16.164Z,99146.00
2022-09-17T04:04:18.797Z,99139.91
2022-09-17T04:09:22.797Z,99137.50
2022-09-17T04:14:25.492Z,99142.22
2022-09-17T04:19:28.414Z,99150.47
2022-09-17T04:24:32.448Z,99152.59
2022-09-17T04:29:35.105Z,99143.81
2022-09-17T04:34:37.823Z,99144.94
2022-09-17T04:39:41.783Z,99144.25
2022-09-17T04:44:44.696Z,99150.75
2022-09-17T04:49:47.467Z,99149.06
2022-09-17T04:54:51.497Z,99157.59
2022-09-17T04:59:54.261Z,99156.75
2022-09-17T05:04:57.036Z,99163.31
2022-09-17T05:10:00.997Z,99159.03
2022-09-17T05:15:04.650Z,99163.72
2022-09-17T05:20:08.561Z,99170.28
2022-09-17T05:25:13.002Z,99172.09
2022-09-17T05:30:15.812Z,99178.66
2022-09-17T05:35:18.537Z,99181.63
2022-09-17T05:40:22.619Z,99189.88
2022-09-17T05:45:25.514Z,99199.97
2022-09-17T05:50:29.955Z,99201.94
2022-09-17T05:55:35.094Z,99209.34
2022-09-17T06:00:37.915Z,99213.03
2022-09-17T06:05:41.117Z,99214.03
2022-09-17T06:10:45.260Z,99209.66
2022-09-17T06:15:51.158Z,99212.34
2022-09-17T06:20:55.280Z,99215.16
2022-09-17T06:26:00.581Z,99219.72
2022-09-17T06:31:05.127Z,99228.53
2022-09-17T06:36:13.611Z,99224.25
2022-09-17T06:41:18.364Z,99230.66
2022-09-17T06:46:21.036Z,99228.97
2022-09-17T06:51:23.753Z,99238.75
2022-09-17T06:56:28.091Z,99230.66
2022-09-17T07:01:31.124Z,99227.81
2022-09-17T07:06:34.086Z,99221.56
2022-09-17T07:11:38.091Z,99227.53
2022-09-17T07:16:40.776Z,99230.94
2022-09-17T07:21:43.558Z,99228.94
2022-09-17T07:26:47.577Z,99224.41
2022-09-17T07:31:50.358Z,99221.28
2022-09-17T07:36:53.033Z,99230.81
2022-09-17T07:41:57.058Z,99233.03
2022-09-17T07:46:59.713Z,99233.19
2022-09-17T07:52:06.192Z,99238.94
2022-09-17T07:57:10.238Z,99243.81
2022-09-17T08:02:14.348Z,99239.69
2022-09-17T08:07:17.083Z,99242.94
2022-09-17T08:12:22.797Z,99238.97
2022-09-17T08:17:25.422Z,99252.75
2022-09-17T08:22:28.111Z,99262.56
2022-09-17T08:27:32.739Z,99255.31
2022-09-17T08:32:35.364Z,99266.94
2022-09-17T08:37:37.995Z,99270.53
2022-09-17T08:42:54.123Z,99274.06
2022-09-17T08:48:05.032Z,99292.13
2022-09-17T08:53:21.208Z,99294.81
2022-09-17T08:58:42.676Z,99295.66
2022-09-17T09:04:02.137Z,99300.19
2022-09-17T09:09:11.797Z,99302.91
2022-09-17T09:14:24.055Z,99303.75
2022-09-17T09:19:29.614Z,99319.78
2022-09-17T09:24:42.178Z,99326.03
2022-09-17T09:30:03.335Z,99319.69
2022-09-17T09:35:18.497Z,99324.06
2022-09-17T09:40:31.728Z,99334.59
2022-09-17T09:45:48.434Z,99331.91
2022-09-17T09:51:06.896Z,99329.06
2022-09-17T09:56:32.396Z,99314.56
2022-09-17T10:01:41.686Z,99322.81
2022-09-17T10:06:44.542Z,99330.66
2022-09-17T10:12:01.394Z,99328.81
2022-09-17T10:17:17.707Z,99334.91
2022-09-17T10:22:26.526Z,99325.69
2022-09-17T10:27:31.331Z,99314.00
2022-09-17T10:32:35.431Z,99313.75
2022-09-17T10:37:45.393Z,99316.59
2022-09-17T10:42:49.110Z,99315.28
2022-09-17T10:47:54.040Z,99303.38
2022-09-17T10:52:59.862Z,99304.22
2022-09-17T10:58:16.582Z,99306.50
2022-09-17T11:03:48.656Z,99299.41
2022-09-17T11:09:03.150Z,99293.00
2022-09-17T11:14:19.732Z,99292.59
2022-09-17T11:19:33.737Z,99286.03
2022-09-17T11:24:51.413Z,99289.91
2022-09-17T11:30:06.294Z,99278.38
2022-09-17T11:35:15.734Z,99275.25
2022-09-17T11:40:25.213Z,99293.31
2022-09-17T11:45:33.819Z,99305.66
2022-09-17T11:50:43.844Z,99337.75
2022-09-17T11:56:18.546Z,99317.16
2022-09-17T12:01:30.717Z,99303.53
2022-09-17T12:06:41.081Z,99295.72
2022-09-17T12:11:49.430Z,99276.13
2022-09-17T12:16:58.979Z,99276.81
2022-09-17T12:22:10.804Z,99276.38
2022-09-17T12:27:23.685Z,99283.22
2022-09-17T12:32:56.717Z,99284.34
2022-09-17T12:38:16.379Z,99267.41
2022-09-17T12:43:43.705Z,99252.22
2022-09-17T12:49:14.970Z,99244.53
2022-09-17T12:54:31.790Z,99236.59
2022-09-17T12:59:50.568Z,99245.53
2022-09-17T13:05:25.335Z,99237.13
2022-09-17T13:10:45.759Z,99226.47
2022-09-17T13:15:55.306Z,99214.63
2022-09-17T13:21:08.074Z,99223.13
2022-09-17T13:26:17.209Z,99229.88
2022-09-17T13:31:44.573Z,99230.84
2022-09-17T13:36:50.278Z,99224.38
2022-09-17T13:42:02.910Z,99221.97
2022-09-17T13:47:16.920Z,99238.44
2022-09-17T13:52:38.306Z,99231.53
2022-09-17T13:57:52.456Z,99223.94
2022-09-17T14:02:55.089Z,99213.13
2022-09-17T14:08:29.200Z,99216.66
2022-09-17T14:13:44.917Z,99213.28
2022-09-17T14:18:59.800Z,99215.13
2022-09-17T14:24:05.939Z,99206.78
2022-09-17T14:29:21.570Z,99201.91
2022-09-17T14:34:27.211Z,99197.50
2022-09-17T14:39:38.262Z,99205.16
2022-09-17T14:44:50.841Z,99204.00
2022-09-17T14:49:54.214Z,99193.88
2022-09-17T14:55:17.624Z,99195.75
2022-09-17T15:00:25.088Z,99185.59
2022-09-17T15:05:31.859Z,99186.47
2022-09-17T15:10:37.531Z,99191.03
2022-09-17T15:15:50.569Z,99201.56
2022-09-17T15:20:57.080Z,99202.06
2022-09-17T15:26:02.433Z,99201.38
2022-09-17T15:31:11.132Z,99196.50
2022-09-17T15:36:21.433Z,99196.38
2022-09-17T15:41:32.085Z,99205.16
2022-09-17T15:46:36.187Z,99208.78
2022-09-17T15:51:39.169Z,99205.09
2022-09-17T15:56:43.383Z,99196.72
2022-09-17T16:01:57.562Z,99213.03
2022-09-17T16:07:27.903Z,99211.03
2022-09-17T16:12:30.528Z,99222.75
2022-09-17T16:17:45.918Z,99220.34
2022-09-17T16:22:49.470Z,99230.63
2022-09-17T16:27:54.859Z,99231.06
2022-09-17T16:33:00.018Z,99234.16
2022-09-17T16:38:02.869Z,99234.19
2022-09-17T16:43:05.658Z,99240.25
2022-09-17T16:48:09.788Z,99249.59
2022-09-17T16:53:12.504Z,99256.59
2022-09-17T16:58:15.210Z,99254.16
2022-09-17T17:03:19.389Z,99264.53
2022-09-17T17:08:22.747Z,99255.31
2022-09-17T17:13:25.549Z,99262.16
2022-09-17T17:18:29.581Z,99274.25
2022-09-17T17:23:32.247Z,99270.84
2022-09-17T17:28:36.407Z,99255.94
2022-09-17T17:33:40.387Z,99266.97
2022-09-17T17:38:43.013Z,99263.56
2022-09-17T17:43:45.666Z,99266.28
2022-09-17T17:48:50.095Z,99271.41
2022-09-17T17:53:52.711Z,99270.97
2022-09-17T17:58:57.603Z,99284.31
2022-09-17T18:04:03.243Z,99282.59
2022-09-17T18:09:06.923Z,99286.72
2022-09-17T18:14:13.051Z,99293.25
2022-09-17T18:19:17.105Z,99297.22
2022-09-17T18:24:20.167Z,99297.47
2022-09-17T18:29:22.793Z,99298.56
2022-09-17T18:34:27.221Z,99307.25
2022-09-17T18:39:57.845Z,99299.56
2022-09-17T18:44:52.615Z,99297.25
2022-09-17T18:49:56.698Z,99294.25
2022-09-17T18:55:01.433Z,99303.97
2022-09-17T19:00:07.393Z,99308.03
2022-09-17T19:05:11.755Z,99314.19
2022-09-17T19:10:15.260Z,99317.41
2022-09-17T19:15:18.587Z,99302.91
2022-09-17T19:20:23.514Z,99287.22
2022-09-17T19:25:28.017Z,99294.19
2022-09-17T19:30:31.277Z,99303.00
2022-09-17T19:35:35.308Z,99292.88
2022-09-17T19:40:38.030Z,99289.19
2022-09-17T19:45:40.716Z,99288.44
2022-09-17T19:50:52.645Z,99279.47
2022-09-17T19:55:55.649Z,99284.03
2022-09-17T20:00:59.170Z,99284.25
2022-09-17T20:06:04.909Z,99284.81
2022-09-17T20:11:09.316Z,99291.78
2022-09-17T20:16:14.317Z,99286.19
2022-09-17T20:21:20.403Z,99284.22
2022-09-17T20:26:23.775Z,99282.34
2022-09-17T20:31:28.958Z,99278.63
2022-09-17T20:36:35.977Z,99279.88
2022-09-17T20:41:39.501Z,99285.59
2022-09-17T20:46:42.221Z,99291.38
2022-09-17T20:51:46.465Z,99292.13
2022-09-17T20:56:49.163Z,99283.81
2022-09-17T21:01:53.540Z,99287.22
2022-09-17T21:06:57.621Z,99285.06
2022-09-17T21:12:00.357Z,99282.97
2022-09-17T21:17:03.400Z,99282.97
2022-09-17T21:22:07.433Z,99279.81
2022-09-17T21:27:10.142Z,99278.47
2022-09-17T21:32:12.763Z,99279.38
2022-09-17T21:37:16.957Z,99273.78
2022-09-17T21:42:19.647Z,99280.06
2022-09-17T21:47:22.514Z,99273.50
2022-09-17T21:52:26.489Z,99272.09
2022-09-17T21:57:29.412Z,99272.50
2022-09-17T22:02:32.677Z,99263.50
2022-09-17T22:07:36.650Z,99274.50
2022-09-17T22:12:42.318Z,99268.25
2022-09-17T22:17:46.094Z,99262.22
2022-09-17T22:22:50.168Z,99244.66
2022-09-17T22:28:16.998Z,99239.41
2022-09-17T22:33:15.374Z,99239.41
2022-09-17T22:38:19.383Z,99234.66
2022-09-17T22:43:21.985Z,99239.06
2022-09-17T22:48:24.804Z,99233.50
2022-09-17T22:53:28.830Z,99235.22
2022-09-17T22:58:31.989Z,99236.75
2022-09-17T23:03:34.690Z,99236.59
2022-09-17T23:08:38.802Z,99258.97
2022-09-17T23:13:41.674Z,99256.25
2022-09-17T23:18:44.799Z,99260.66
2022-09-17T23:23:50.865Z,99247.28
2022-09-17T23:28:54.667Z,99255.94
2022-09-17T23:33:57.951Z,99257.94
2022-09-17T23:39:03.233Z,99264.22
2022-09-17T23:44:13.828Z,99269.34
2022-09-17T23:49:17.893Z,99276.59
2022-09-17T23:54:21.894Z,99286.56
2022-09-17T23:59:24.771Z,99267.47
